Terminal Aerodrome Forecast
Issued by NWS

Home | Current Version | Previous Version | Graphics & Text | Print | Product List | Glossary Off
Versions: 1 2 3 4 5 6 7 8 9 10 11 12 13 14 15 16 17 18 19 20

137
FTUS43 KGRB 240257 AAA
TAFAUW
TAF AMD
KAUW 240257Z 2403/2424 15007KT P6SM VCSH SCT040 BKN070
      TEMPO 2403/2406 4SM -SHRA BKN040
     FM240600 17007KT 6SM SHRA BKN025 OVC040 WS020/21035KT
     FM240900 21008KT 5SM -SHRA BR OVC012 WS020/21035KT
     FM241500 26010G19KT P6SM SCT025 BKN050
     FM242000 27010G18KT P6SM SCT050=

USA.gov is the U.S. government's official web portal to all federal, state and local government web resources and services.